KCNB

Myers Field Airport

Canby, Minnesota, USA
METAR KCNB 180015Z AUTO 09004KT 10SM CLR 08/M02 A3041 RMK AO2 T00781016
Observed Flight Rules
Oct-18 @ 00:15 UTC (31 minutes ago) Visual Flight Rules
Wind Visibility Clouds
90° at 4 knots 10 miles
  • Clear skies
Temperatures Readings
Current 8°C / 46°F
Dewpoint -2°C / 28°F
Humidity 50%
Altimeter 30.41" Hg
Pressure 1030 hPa
Elevation 364
METAR KCNB 180015Z AUTO 09004KT 10SM CLR 08/M02 A3041 RMK AO2 T00781016
Observed Flight Rules
Oct-18 @ 00:15 UTC
(31 minutes ago)
VFR
Wind Visibility
90° at 4 knots 10 miles
Clouds
  • Clear skies
Temperature Dewpoint
8°C / 46°F -2°C / 28°F
Humidity Altimeter Pressure
50% 30.41" Hg 1030 hPa